Time;durP1;ratioP1;P1;durP2;ratioP2;P2;SDS_P1;SDS_P2;PMS_P1;PMS_P2;Temp;Humidity;BMP_temperature;BMP_pressure;BME280_temperature;BME280_humidity;BME280_pressure;Samples;Min_cycle;Max_cycle;Signal;HPM_P1;HPM_P2
2022/08/17 00:00:26;;;;;;;4.47;4.07;;;18.40;99.90;;;;;;4990136;28;20490;-68
2022/08/17 00:02:58;;;;;;;4.40;4.00;;;18.40;99.90;;;;;;4995817;28;20690;-69
2022/08/17 00:05:25;;;;;;;4.00;3.40;;;18.40;99.90;;;;;;5010118;28;20465;-69
2022/08/17 00:07:52;;;;;;;5.23;4.00;;;18.40;99.90;;;;;;5010571;28;20539;-68
2022/08/17 00:10:20;;;;;;;4.50;4.10;;;18.30;99.90;;;;;;5010264;28;20469;-69
2022/08/17 00:12:47;;;;;;;4.77;4.37;;;18.30;99.90;;;;;;5014326;28;20469;-69
2022/08/17 00:15:14;;;;;;;3.90;3.60;;;18.30;99.90;;;;;;5013973;28;20547;-69
2022/08/17 00:17:41;;;;;;;4.27;3.90;;;18.30;99.90;;;;;;5014317;28;20490;-69
2022/08/17 00:20:10;;;;;;;4.10;3.70;;;18.20;99.90;;;;;;5014133;28;20469;-67
2022/08/17 00:22:37;;;;;;;4.70;4.10;;;18.20;99.90;;;;;;5014183;28;20520;-69
2022/08/17 00:27:33;;;;;;;5.23;4.10;;;18.20;99.90;;;;;;5001144;28;20482;-69
2022/08/17 00:30:00;;;;;;;4.20;3.90;;;18.10;99.90;;;;;;4994941;28;20493;-69
2022/08/17 00:32:27;;;;;;;4.90;4.27;;;18.10;99.90;;;;;;4994935;28;20454;-69
2022/08/17 00:34:53;;;;;;;4.40;4.10;;;18.00;99.90;;;;;;4994040;28;20463;-69
2022/08/17 00:37:20;;;;;;;4.30;3.97;;;18.00;99.90;;;;;;4994793;28;20887;-69
2022/08/17 00:39:47;;;;;;;4.30;3.90;;;18.00;99.90;;;;;;4994589;28;20458;-69
2022/08/17 00:42:14;;;;;;;4.07;3.70;;;18.00;99.90;;;;;;4994501;28;20557;-69
2022/08/17 00:44:42;;;;;;;4.40;4.00;;;18.00;99.90;;;;;;4993754;28;20958;-69
2022/08/17 00:47:09;;;;;;;3.97;3.67;;;17.90;99.90;;;;;;4994576;28;20494;-69
2022/08/17 00:49:36;;;;;;;5.93;4.30;;;17.90;99.90;;;;;;4994434;28;20462;-69
2022/08/17 00:52:10;;;;;;;4.97;4.57;;;17.90;99.90;;;;;;4994309;28;21008;-69
2022/08/17 00:54:39;;;;;;;4.40;4.00;;;17.90;99.90;;;;;;4993737;28;20490;-69
2022/08/17 00:57:10;;;;;;;4.90;4.40;;;17.90;99.90;;;;;;4994318;28;20483;-69
2022/08/17 00:59:39;;;;;;;10.00;3.90;;;17.80;99.90;;;;;;4994369;28;20466;-69
2022/08/17 01:02:12;;;;;;;4.80;4.40;;;17.80;99.90;;;;;;4994331;28;20487;-69
2022/08/17 01:04:38;;;;;;;4.27;3.87;;;17.80;99.90;;;;;;4993560;28;20498;-69
2022/08/17 01:07:06;;;;;;;4.60;4.20;;;17.70;99.90;;;;;;4994141;28;20485;-69
2022/08/17 01:09:33;;;;;;;4.10;3.80;;;17.70;99.90;;;;;;4994052;28;20477;-69
2022/08/17 01:12:00;;;;;;;4.83;4.10;;;17.70;99.90;;;;;;4993994;28;20880;-69
2022/08/17 01:14:27;;;;;;;5.03;4.50;;;17.70;99.90;;;;;;4993497;28;20960;-69
2022/08/17 01:16:56;;;;;;;5.17;4.67;;;17.70;99.90;;;;;;4993848;28;20741;-69
2022/08/17 01:19:29;;;;;;;4.43;4.03;;;17.70;99.90;;;;;;4994116;28;20470;-69
2022/08/17 01:22:02;;;;;;;4.40;4.00;;;17.70;99.90;;;;;;4993927;28;20490;-70
2022/08/17 01:24:31;;;;;;;4.77;4.23;;;17.70;99.90;;;;;;4994078;28;20509;-70
2022/08/17 01:26:57;;;;;;;4.47;4.07;;;17.70;99.90;;;;;;4994091;28;20501;-69
2022/08/17 01:29:25;;;;;;;7.33;4.37;;;17.60;99.90;;;;;;4994326;28;20539;-70
2022/08/17 01:31:56;;;;;;;4.00;3.70;;;17.60;99.90;;;;;;4994279;28;20465;-69
2022/08/17 01:34:23;;;;;;;11.00;4.77;;;17.60;99.90;;;;;;4993407;28;20977;-69
2022/08/17 01:36:51;;;;;;;5.03;4.63;;;17.60;99.90;;;;;;4993955;28;20517;-69
2022/08/17 01:39:24;;;;;;;5.80;5.20;;;17.50;99.90;;;;;;4993899;28;20529;-69
2022/08/17 01:41:59;;;;;;;4.17;3.80;;;17.50;99.90;;;;;;4993460;28;20487;-69
2022/08/17 01:44:27;;;;;;;5.50;5.00;;;17.50;99.90;;;;;;4993338;28;20870;-69
2022/08/17 01:46:54;;;;;;;5.10;4.60;;;17.50;99.90;;;;;;4993700;28;20483;-69
2022/08/17 01:49:21;;;;;;;5.00;4.50;;;17.50;99.90;;;;;;4993576;28;20466;-69
2022/08/17 01:51:48;;;;;;;4.63;4.30;;;17.50;99.90;;;;;;4993775;28;20466;-69
2022/08/17 01:54:18;;;;;;;4.03;3.50;;;17.50;99.90;;;;;;4993503;28;20883;-69
2022/08/17 01:56:48;;;;;;;4.80;4.23;;;17.40;99.90;;;;;;4993356;28;20491;-69
2022/08/17 01:59:17;;;;;;;4.40;4.10;;;17.40;99.90;;;;;;4993661;28;20471;-69
2022/08/17 02:01:45;;;;;;;4.57;4.17;;;17.40;99.90;;;;;;4993376;28;21001;-69
2022/08/17 02:04:12;;;;;;;5.53;4.53;;;17.40;99.90;;;;;;4992969;28;20474;-69
2022/08/17 02:06:42;;;;;;;4.60;4.13;;;17.40;99.90;;;;;;4993246;28;20998;-69
2022/08/17 02:09:09;;;;;;;5.37;4.57;;;17.40;99.90;;;;;;4993350;28;20518;-69
2022/08/17 02:11:38;;;;;;;4.73;4.33;;;17.40;99.90;;;;;;4993244;28;20474;-69
2022/08/17 02:14:07;;;;;;;4.60;4.20;;;17.40;99.90;;;;;;4993067;28;20523;-69
2022/08/17 02:16:37;;;;;;;5.60;4.57;;;17.40;99.90;;;;;;4993224;28;20466;-69
2022/08/17 02:19:04;;;;;;;4.87;4.47;;;17.40;99.90;;;;;;4993210;28;20468;-69
2022/08/17 02:21:31;;;;;;;5.00;4.37;;;17.40;99.90;;;;;;4993151;28;20874;-69
2022/08/17 02:23:59;;;;;;;4.50;4.10;;;17.40;99.90;;;;;;4992453;28;20505;-69
2022/08/17 02:26:25;;;;;;;5.23;4.67;;;17.40;99.90;;;;;;4993029;28;20470;-69
2022/08/17 02:28:52;;;;;;;4.70;4.30;;;17.40;99.90;;;;;;4992243;28;20875;-69
2022/08/17 02:31:20;;;;;;;4.80;4.40;;;17.40;99.90;;;;;;4992759;28;20455;-69
2022/08/17 02:33:48;;;;;;;4.63;4.23;;;17.40;99.90;;;;;;4992328;28;20561;-69
2022/08/17 02:36:14;;;;;;;4.93;4.43;;;17.40;99.90;;;;;;4993459;28;20960;-69
2022/08/17 02:38:41;;;;;;;4.80;4.40;;;17.50;99.90;;;;;;4992863;28;20479;-69
2022/08/17 02:41:09;;;;;;;5.93;4.47;;;17.50;99.90;;;;;;4992491;28;20479;-69
2022/08/17 02:43:35;;;;;;;5.40;4.87;;;17.50;99.90;;;;;;4992116;28;20469;-69
2022/08/17 02:46:02;;;;;;;4.53;4.13;;;17.40;99.90;;;;;;4992350;28;20969;-69
2022/08/17 02:48:29;;;;;;;4.73;4.33;;;17.40;99.90;;;;;;4992212;28;20630;-69
2022/08/17 02:50:57;;;;;;;5.30;4.80;;;17.40;99.90;;;;;;4992269;28;20471;-69
2022/08/17 02:53:24;;;;;;;4.90;4.30;;;17.40;99.90;;;;;;4991696;28;20467;-69
2022/08/17 02:55:51;;;;;;;4.73;4.33;;;17.40;99.90;;;;;;4992149;28;20868;-69
2022/08/17 02:58:17;;;;;;;4.63;4.20;;;17.40;99.90;;;;;;4991976;28;20487;-69
2022/08/17 03:00:46;;;;;;;5.60;5.10;;;17.40;99.90;;;;;;4992324;28;20466;-70
2022/08/17 03:03:17;;;;;;;5.07;4.50;;;17.30;99.90;;;;;;4993396;28;21113;-70
2022/08/17 03:05:46;;;;;;;4.47;4.17;;;17.30;99.90;;;;;;4992935;28;20553;-70
2022/08/17 03:08:15;;;;;;;5.03;4.20;;;17.30;99.90;;;;;;4992422;28;21048;-69
2022/08/17 03:10:43;;;;;;;5.03;4.63;;;17.30;99.90;;;;;;4992593;28;20471;-69
2022/08/17 03:13:13;;;;;;;4.40;4.10;;;17.30;99.90;;;;;;4992170;28;20462;-69
2022/08/17 03:15:40;;;;;;;4.67;4.27;;;17.30;99.90;;;;;;4991527;28;20459;-69
2022/08/17 03:18:07;;;;;;;3.77;3.53;;;17.30;99.90;;;;;;4991954;28;21033;-69
2022/08/17 03:20:36;;;;;;;4.47;4.13;;;17.30;99.90;;;;;;4992225;28;20470;-69
2022/08/17 03:23:03;;;;;;;6.10;3.67;;;17.20;99.90;;;;;;4992014;28;20581;-69
2022/08/17 03:25:34;;;;;;;4.83;4.33;;;17.20;99.90;;;;;;4991279;28;20477;-69
2022/08/17 03:28:01;;;;;;;4.90;4.33;;;17.20;99.90;;;;;;4992097;28;20490;-69
2022/08/17 03:30:28;;;;;;;4.63;4.23;;;17.20;99.90;;;;;;4991547;28;20466;-69
2022/08/17 03:32:57;;;;;;;4.93;4.50;;;17.20;99.90;;;;;;4991330;28;20808;-69
2022/08/17 03:35:25;;;;;;;4.53;4.13;;;17.30;99.90;;;;;;4990938;28;20475;-68
2022/08/17 03:37:53;;;;;;;4.60;3.97;;;17.20;99.90;;;;;;4991302;28;20486;-68
2022/08/17 03:40:20;;;;;;;4.00;3.70;;;17.20;99.90;;;;;;4991273;28;20497;-69
2022/08/17 03:42:49;;;;;;;4.80;4.40;;;17.20;99.90;;;;;;4991092;28;20490;-68
2022/08/17 03:56:40;;;;;;;5.60;4.60;;;17.20;99.90;;;;;;4992724;28;20513;-69
2022/08/17 03:56:43;;;;;;;5.17;4.67;;;17.10;99.90;;;;;;4995520;28;20540;-68
2022/08/17 03:59:13;;;;;;;5.20;4.70;;;17.10;99.90;;;;;;4994875;28;20466;-70
2022/08/17 04:01:40;;;;;;;5.83;4.60;;;17.10;99.90;;;;;;4994855;28;20569;-70
2022/08/17 04:04:08;;;;;;;4.43;4.03;;;17.10;99.90;;;;;;4994563;28;20470;-70
2022/08/17 04:06:34;;;;;;;4.43;4.03;;;17.20;99.90;;;;;;4995102;28;20467;-70
2022/08/17 04:09:01;;;;;;;4.73;4.33;;;17.30;99.90;;;;;;4994965;28;20466;-70
2022/08/17 04:11:28;;;;;;;3.90;3.60;;;17.40;99.90;;;;;;4995118;28;20474;-70
2022/08/17 04:13:55;;;;;;;4.87;3.90;;;17.40;99.90;;;;;;4994324;28;20466;-70
2022/08/17 04:16:23;;;;;;;4.00;3.70;;;17.40;99.90;;;;;;4994836;28;20972;-70
2022/08/17 04:18:50;;;;;;;4.70;4.30;;;17.40;99.90;;;;;;4993570;28;20502;-70
2022/08/17 04:21:17;;;;;;;5.53;4.50;;;17.40;99.90;;;;;;4992902;28;20584;-70
2022/08/17 04:23:43;;;;;;;4.73;4.10;;;17.30;99.90;;;;;;4993818;28;20468;-70
2022/08/17 04:26:11;;;;;;;4.27;3.87;;;17.30;99.90;;;;;;4994893;28;20477;-70
2022/08/17 04:28:38;;;;;;;4.20;3.80;;;17.20;99.90;;;;;;4994726;28;20486;-70
2022/08/17 04:31:05;;;;;;;5.67;5.07;;;17.20;99.90;;;;;;4995139;28;20469;-70
2022/08/17 04:33:33;;;;;;;4.57;4.17;;;17.20;99.90;;;;;;4994324;28;20521;-70
2022/08/17 04:36:02;;;;;;;5.30;4.80;;;17.10;99.90;;;;;;4994843;28;20525;-70
2022/08/17 04:38:31;;;;;;;5.07;4.57;;;17.10;99.90;;;;;;4994512;28;21045;-71
2022/08/17 04:43:44;;;;;;;4.23;3.83;;;17.00;99.90;;;;;;5098503;23;20576;-94
2022/08/17 04:46:13;;;;;;;5.20;4.70;;;17.00;99.90;;;;;;5039173;28;20465;-93
2022/08/17 04:48:44;;;;;;;5.77;4.60;;;17.00;99.90;;;;;;5038940;28;20481;-94
2022/08/17 04:51:13;;;;;;;4.83;4.43;;;17.00;99.90;;;;;;5039006;28;20472;-93
2022/08/17 04:53:42;;;;;;;4.97;4.50;;;17.00;99.90;;;;;;5039243;28;20461;-92
2022/08/17 04:56:11;;;;;;;5.40;4.50;;;17.00;99.90;;;;;;5039281;28;20495;-93
2022/08/17 04:58:38;;;;;;;4.57;4.17;;;17.00;99.90;;;;;;5038779;28;20489;-93
2022/08/17 05:01:06;;;;;;;4.33;3.93;;;17.00;99.90;;;;;;5038778;28;20469;-93
2022/08/17 05:03:33;;;;;;;4.63;4.23;;;17.10;99.90;;;;;;5039969;28;20488;-92
2022/08/17 05:06:01;;;;;;;4.10;3.80;;;17.10;99.90;;;;;;5041382;28;20832;-93
2022/08/17 05:11:00;;;;;;;4.43;4.07;;;17.10;99.90;;;;;;5073035;22;20478;-92
2022/08/17 05:13:29;;;;;;;5.77;4.63;;;17.10;99.90;;;;;;5029285;28;20458;-91
2022/08/17 05:15:58;;;;;;;5.07;4.67;;;17.20;99.90;;;;;;5024434;28;20496;-93
2022/08/17 05:18:26;;;;;;;4.50;4.10;;;17.20;99.90;;;;;;5023966;28;20458;-92
2022/08/17 05:20:53;;;;;;;4.00;3.60;;;17.20;99.90;;;;;;5025735;28;20553;-92
2022/08/17 05:23:24;;;;;;;4.67;4.27;;;17.20;99.90;;;;;;5038442;28;20484;-94
2022/08/17 05:25:55;;;;;;;4.87;4.00;;;17.30;99.90;;;;;;5040071;28;20418;-92
2022/08/17 05:28:25;;;;;;;5.33;4.83;;;17.30;99.90;;;;;;5040224;28;20430;-94
2022/08/17 05:30:53;;;;;;;4.50;4.10;;;17.40;99.90;;;;;;5039682;28;20474;-94
2022/08/17 05:33:22;;;;;;;6.73;4.20;;;17.50;99.90;;;;;;5039722;28;20449;-92
2022/08/17 05:35:53;;;;;;;5.20;4.80;;;17.50;99.90;;;;;;5022834;28;20465;-91
2022/08/17 05:38:24;;;;;;;6.83;4.60;;;17.60;99.90;;;;;;5022252;28;20462;-92
2022/08/17 05:40:51;;;;;;;5.20;4.57;;;17.70;99.90;;;;;;5021552;28;20489;-91
2022/08/17 05:43:31;;;;;;;4.63;4.23;;;17.70;99.90;;;;;;5021163;28;20557;-92
2022/08/17 05:46:39;;;;;;;4.30;3.90;;;17.80;99.90;;;;;;5021371;28;20476;-91
2022/08/17 05:49:07;;;;;;;5.03;4.53;;;17.90;99.90;;;;;;5020442;28;21094;-90
2022/08/17 05:52:13;;;;;;;4.70;4.20;;;18.00;99.90;;;;;;5021899;28;20561;-91
2022/08/17 05:54:57;;;;;;;4.63;3.90;;;18.10;99.90;;;;;;5007544;28;20454;-92
2022/08/17 05:57:37;;;;;;;3.80;3.50;;;18.20;99.90;;;;;;5020861;28;20465;-92
2022/08/17 06:00:12;;;;;;;5.00;4.50;;;18.30;99.90;;;;;;5017834;28;20477;-92
2022/08/17 06:02:51;;;;;;;4.30;3.90;;;18.40;99.90;;;;;;5013060;28;20482;-89
2022/08/17 06:05:41;;;;;;;4.83;4.37;;;18.50;99.90;;;;;;5016420;28;20469;-89
2022/08/17 06:08:16;;;;;;;6.20;4.53;;;18.70;99.90;;;;;;5015782;28;20535;-89
2022/08/17 06:10:55;;;;;;;5.00;4.60;;;18.80;99.90;;;;;;5017419;28;20500;-91
2022/08/17 06:13:36;;;;;;;5.30;4.57;;;18.90;99.90;;;;;;5017561;28;20465;-90
2022/08/17 06:16:07;;;;;;;5.83;4.50;;;19.00;99.90;;;;;;5018174;28;20473;-89
2022/08/17 06:18:41;;;;;;;4.43;3.97;;;19.10;99.90;;;;;;5018243;28;20516;-89
2022/08/17 06:21:13;;;;;;;4.73;4.23;;;19.20;99.90;;;;;;5018353;28;20539;-91
2022/08/17 06:23:43;;;;;;;5.10;4.60;;;19.30;99.90;;;;;;5021190;28;20584;-91
2022/08/17 06:26:17;;;;;;;5.77;4.90;;;19.40;99.90;;;;;;5020490;28;20512;-91
2022/08/17 06:28:52;;;;;;;6.90;4.20;;;19.50;99.90;;;;;;5021094;28;20458;-91
2022/08/17 06:31:21;;;;;;;4.30;3.90;;;19.70;99.90;;;;;;5020324;28;20470;-91
2022/08/17 06:33:49;;;;;;;4.27;3.83;;;19.80;99.90;;;;;;5023231;28;20465;-91
2022/08/17 06:36:32;;;;;;;4.67;4.13;;;20.00;99.90;;;;;;5023596;28;20461;-90
2022/08/17 06:39:09;;;;;;;4.07;3.73;;;20.10;99.90;;;;;;5023566;28;20569;-91
2022/08/17 06:41:44;;;;;;;4.40;4.00;;;20.20;99.90;;;;;;5025188;28;20458;-92
2022/08/17 06:44:16;;;;;;;4.17;3.80;;;20.40;99.90;;;;;;5026640;28;20483;-91
2022/08/17 06:46:47;;;;;;;4.23;3.83;;;20.60;99.90;;;;;;5026384;28;20466;-91
2022/08/17 06:49:20;;;;;;;5.27;4.70;;;20.80;99.90;;;;;;5024886;28;20492;-91
2022/08/17 06:51:51;;;;;;;5.03;4.57;;;21.00;99.90;;;;;;5025533;28;20458;-91
2022/08/17 06:54:24;;;;;;;4.37;4.00;;;21.10;99.90;;;;;;5023955;28;20466;-90
2022/08/17 06:57:00;;;;;;;4.00;3.60;;;21.10;99.90;;;;;;5023527;28;20466;-90
2022/08/17 06:59:43;;;;;;;3.83;3.53;;;21.20;99.90;;;;;;5026979;28;21007;-93
2022/08/17 07:02:15;;;;;;;4.77;4.30;;;21.40;99.90;;;;;;5036297;22;20495;-69
2022/08/17 07:04:42;;;;;;;4.77;4.27;;;21.50;99.90;;;;;;5013690;28;20455;-69
2022/08/17 07:09:53;;;;;;;3.43;3.13;;;21.80;99.90;;;;;;5010020;28;20549;-68
2022/08/17 07:12:26;;;;;;;4.70;4.30;;;21.80;99.90;;;;;;5009366;28;20476;-69
2022/08/17 07:14:57;;;;;;;5.00;4.43;;;21.90;99.90;;;;;;5009744;28;20467;-70
2022/08/17 07:17:25;;;;;;;4.93;4.40;;;22.00;99.90;;;;;;5010646;28;20481;-70
2022/08/17 07:20:04;;;;;;;3.93;3.63;;;22.10;99.90;;;;;;5012185;28;20538;-70
2022/08/17 07:22:49;;;;;;;5.70;3.97;;;22.20;99.90;;;;;;5011642;28;20498;-69
2022/08/17 07:25:18;;;;;;;3.80;3.50;;;22.30;99.90;;;;;;5009829;28;20472;-69
2022/08/17 07:27:50;;;;;;;7.43;4.47;;;22.40;99.90;;;;;;5010449;28;20489;-70
2022/08/17 07:30:20;;;;;;;3.70;3.40;;;22.60;99.90;;;;;;5009934;28;21021;-71
2022/08/17 07:32:52;;;;;;;4.20;3.80;;;22.70;99.90;;;;;;5010830;28;20493;-69
2022/08/17 07:35:21;;;;;;;4.50;4.07;;;22.80;99.90;;;;;;5009782;28;20553;-69
2022/08/17 07:37:52;;;;;;;3.93;3.50;;;23.00;99.90;;;;;;5010068;28;20493;-69
2022/08/17 07:40:29;;;;;;;4.63;4.23;;;23.10;99.90;;;;;;5007370;28;20501;-66
2022/08/17 07:43:08;;;;;;;3.90;3.40;;;23.20;99.90;;;;;;5010181;28;20513;-67
2022/08/17 07:48:25;;;;;;;5.10;3.73;;;23.40;99.90;;;;;;5009773;28;20472;-70
2022/08/17 07:50:52;;;;;;;3.63;3.33;;;23.50;99.90;;;;;;5010033;28;20518;-69
2022/08/17 07:53:22;;;;;;;4.17;3.77;;;23.50;99.90;;;;;;5009523;28;20549;-70
2022/08/17 07:55:50;;;;;;;4.00;3.13;;;23.50;99.90;;;;;;5010322;28;20544;-69
2022/08/17 07:58:20;;;;;;;3.90;3.60;;;23.50;99.90;;;;;;5010086;28;20512;-68
2022/08/17 08:01:04;;;;;;;4.40;4.00;;;23.50;99.90;;;;;;5010034;28;20475;-69
2022/08/17 08:03:32;;;;;;;4.77;4.37;;;23.50;99.10;;;;;;5009400;28;20588;-67
2022/08/17 08:06:01;;;;;;;3.90;3.50;;;23.40;99.20;;;;;;5010012;28;20505;-69
2022/08/17 08:08:32;;;;;;;3.90;3.57;;;23.40;99.30;;;;;;5009647;28;20490;-68
2022/08/17 08:11:03;;;;;;;3.83;3.53;;;23.40;99.60;;;;;;5009874;28;20463;-70
2022/08/17 08:13:32;;;;;;;3.87;3.57;;;23.40;99.80;;;;;;5009824;28;20504;-70
2022/08/17 08:16:24;;;;;;;4.40;4.10;;;23.40;99.90;;;;;;5009404;28;20494;-69
2022/08/17 08:18:53;;;;;;;3.90;3.50;;;23.40;99.70;;;;;;5009864;28;20468;-69
2022/08/17 08:21:38;;;;;;;3.90;3.60;;;23.30;99.00;;;;;;5009823;28;20771;-69
2022/08/17 08:24:28;;;;;;;3.93;3.63;;;23.30;99.00;;;;;;5009374;28;20496;-70
2022/08/17 08:27:11;;;;;;;4.70;4.40;;;23.30;99.30;;;;;;5010813;28;20543;-69
2022/08/17 08:29:51;;;;;;;4.60;3.50;;;23.30;99.20;;;;;;5009693;28;20468;-70
2022/08/17 08:32:23;;;;;;;4.47;4.07;;;23.30;99.40;;;;;;5011938;28;20518;-69
2022/08/17 08:35:02;;;;;;;8.93;3.90;;;23.30;99.90;;;;;;5012471;28;20468;-68
2022/08/17 08:37:38;;;;;;;5.00;4.30;;;23.20;99.90;;;;;;5014056;28;20491;-70
2022/08/17 08:40:13;;;;;;;4.90;4.50;;;23.20;99.90;;;;;;5024082;28;20563;-69
2022/08/17 08:42:48;;;;;;;4.00;3.70;;;23.20;99.90;;;;;;5033846;28;20462;-69
2022/08/17 08:45:23;;;;;;;4.27;3.97;;;23.10;99.70;;;;;;5032180;28;20552;-69
2022/08/17 08:48:14;;;;;;;4.13;3.70;;;23.20;99.90;;;;;;5032774;28;20481;-68
2022/08/17 08:50:49;;;;;;;4.20;3.80;;;23.10;99.90;;;;;;5032936;28;20559;-68
2022/08/17 08:53:26;;;;;;;4.80;4.40;;;23.10;99.90;;;;;;5032288;28;20549;-68
2022/08/17 08:55:59;;;;;;;4.03;3.73;;;23.10;99.90;;;;;;5033223;28;20874;-70
2022/08/17 08:58:36;;;;;;;4.40;4.00;;;23.00;99.90;;;;;;5032827;28;20489;-70
2022/08/17 09:01:12;;;;;;;4.40;4.00;;;23.00;99.90;;;;;;5032435;28;20475;-68
2022/08/17 09:03:51;;;;;;;4.30;3.90;;;23.00;99.90;;;;;;5032309;28;21038;-69
2022/08/17 09:06:35;;;;;;;5.10;4.70;;;22.90;99.90;;;;;;5032705;28;20858;-70
2022/08/17 09:09:13;;;;;;;4.17;3.83;;;22.90;99.90;;;;;;5032144;28;20551;-69
2022/08/17 09:11:51;;;;;;;5.60;5.10;;;22.80;99.90;;;;;;5032715;28;20970;-69
2022/08/17 09:14:22;;;;;;;5.33;4.83;;;22.70;99.90;;;;;;5031816;28;20985;-69
2022/08/17 09:17:02;;;;;;;5.13;4.67;;;22.70;99.90;;;;;;5032507;28;20489;-68
2022/08/17 09:19:33;;;;;;;4.40;4.10;;;22.60;99.90;;;;;;5032441;28;20464;-68
2022/08/17 09:22:06;;;;;;;5.10;4.63;;;22.40;99.90;;;;;;5031899;28;20461;-68
2022/08/17 09:24:37;;;;;;;4.83;4.43;;;22.20;99.90;;;;;;5031893;28;20488;-68
2022/08/17 09:27:08;;;;;;;5.80;4.80;;;22.10;99.90;;;;;;5031839;28;20483;-68
2022/08/17 09:29:42;;;;;;;5.60;5.10;;;22.00;99.90;;;;;;5032109;28;20459;-68
2022/08/17 09:32:16;;;;;;;5.23;4.73;;;22.00;99.90;;;;;;5023684;28;20465;-69
2022/08/17 09:34:49;;;;;;;6.00;5.40;;;21.90;99.90;;;;;;5012294;28;20562;-69
2022/08/17 09:37:22;;;;;;;5.40;4.90;;;21.90;99.90;;;;;;5025362;28;20920;-69
2022/08/17 09:39:57;;;;;;;4.97;4.57;;;21.90;99.90;;;;;;5016607;28;20878;-68
2022/08/17 09:42:29;;;;;;;4.93;4.43;;;21.90;99.90;;;;;;5013921;28;20467;-69
2022/08/17 09:45:07;;;;;;;5.63;5.13;;;21.80;99.90;;;;;;5011716;28;20899;-70
2022/08/17 09:47:44;;;;;;;6.90;5.70;;;21.80;99.90;;;;;;5012642;28;20486;-68
2022/08/17 09:50:15;;;;;;;5.47;5.00;;;21.70;99.90;;;;;;5012456;28;21103;-69
2022/08/17 09:52:42;;;;;;;6.03;5.43;;;21.70;99.90;;;;;;5011951;28;20470;-70
2022/08/17 09:55:09;;;;;;;9.20;5.37;;;21.60;99.90;;;;;;5011511;28;20477;-71
2022/08/17 09:57:53;;;;;;;5.53;5.13;;;21.60;99.90;;;;;;5012601;28;21067;-70
2022/08/17 10:00:25;;;;;;;5.50;5.00;;;21.70;99.90;;;;;;5011291;28;21000;-71
2022/08/17 10:03:20;;;;;;;6.07;5.30;;;21.70;99.90;;;;;;5010214;28;20465;-70
2022/08/17 10:05:54;;;;;;;6.43;5.83;;;21.80;99.90;;;;;;5012310;28;20459;-70
2022/08/17 10:08:29;;;;;;;5.87;5.30;;;21.80;99.90;;;;;;5011333;28;20551;-69
2022/08/17 10:11:06;;;;;;;6.13;5.60;;;21.80;99.90;;;;;;5011581;28;20466;-69
2022/08/17 10:13:41;;;;;;;6.30;5.70;;;21.80;99.90;;;;;;5011457;28;20464;-69
2022/08/17 10:16:16;;;;;;;5.20;4.80;;;21.90;99.90;;;;;;5010855;28;20997;-69
2022/08/17 10:18:53;;;;;;;4.80;4.40;;;21.80;99.90;;;;;;5011800;28;20461;-71
2022/08/17 10:27:01;;;;;;;4.70;4.30;;;21.80;99.90;;;;;;5011533;28;20490;-69
2022/08/17 10:29:33;;;;;;;5.53;5.03;;;21.90;99.90;;;;;;5010914;28;20470;-70
2022/08/17 10:32:09;;;;;;;6.23;5.63;;;22.00;99.90;;;;;;5011551;28;20517;-70
2022/08/17 10:34:50;;;;;;;5.90;5.30;;;22.10;99.90;;;;;;5010984;28;20453;-71
2022/08/17 10:37:41;;;;;;;5.13;4.63;;;22.20;99.90;;;;;;5011197;28;21127;-70
2022/08/17 10:40:23;;;;;;;7.47;5.20;;;22.30;99.90;;;;;;5010629;28;20494;-71
2022/08/17 10:42:56;;;;;;;5.60;4.33;;;22.30;99.90;;;;;;5011438;28;20966;-70
2022/08/17 10:45:29;;;;;;;4.70;4.30;;;22.30;99.90;;;;;;5010649;28;20566;-70
2022/08/17 10:48:02;;;;;;;5.10;4.60;;;22.40;99.90;;;;;;5011432;28;20494;-70
2022/08/17 10:50:57;;;;;;;4.40;4.10;;;22.30;99.90;;;;;;5011505;28;20464;-70
2022/08/17 10:53:51;;;;;;;5.00;4.50;;;22.30;99.90;;;;;;5010489;28;20546;-70
2022/08/17 10:56:24;;;;;;;4.57;4.17;;;22.30;99.90;;;;;;5010611;28;20459;-70
2022/08/17 10:58:53;;;;;;;4.43;4.07;;;22.20;99.90;;;;;;5010929;28;20459;-70
2022/08/17 11:01:42;;;;;;;4.10;3.70;;;22.10;99.90;;;;;;5010710;28;20566;-68
2022/08/17 11:04:23;;;;;;;3.90;3.60;;;22.00;99.90;;;;;;5010096;28;20493;-70
2022/08/17 11:07:02;;;;;;;5.37;3.80;;;22.00;99.90;;;;;;5010882;28;20560;-67
2022/08/17 11:12:14;;;;;;;3.90;3.60;;;21.80;99.90;;;;;;5009549;28;20530;-68
2022/08/17 11:14:59;;;;;;;4.00;3.70;;;21.80;99.90;;;;;;5003387;28;20459;-71
2022/08/17 11:17:53;;;;;;;4.30;4.00;;;21.70;99.90;;;;;;4992302;28;20490;-69
2022/08/17 11:20:53;;;;;;;3.80;3.50;;;21.60;99.90;;;;;;4991595;28;20468;-70
2022/08/17 11:23:49;;;;;;;4.30;3.90;;;21.50;99.90;;;;;;4991343;28;20561;-69
2022/08/17 11:26:24;;;;;;;3.80;3.50;;;21.50;99.90;;;;;;4987711;28;20472;-69
2022/08/17 11:28:57;;;;;;;4.10;3.60;;;21.40;99.90;;;;;;4991574;28;20964;-69
2022/08/17 11:31:29;;;;;;;4.97;4.33;;;21.40;99.90;;;;;;4991520;28;20809;-69
2022/08/17 11:34:00;;;;;;;4.30;3.43;;;21.30;99.90;;;;;;4991066;28;21028;-69
2022/08/17 11:37:00;;;;;;;4.13;3.77;;;21.30;99.90;;;;;;4991613;28;20464;-70
2022/08/17 11:40:04;;;;;;;4.50;4.13;;;21.30;99.90;;;;;;4991926;28;20463;-69
2022/08/17 11:42:56;;;;;;;4.20;3.80;;;21.20;99.90;;;;;;4986214;28;21010;-69
2022/08/17 11:45:55;;;;;;;4.00;3.60;;;21.20;99.90;;;;;;4989923;28;20902;-71
2022/08/17 11:51:33;;;;;;;4.53;3.77;;;21.10;99.90;;;;;;4992682;28;20487;-70
2022/08/17 11:54:08;;;;;;;4.97;4.47;;;21.10;99.90;;;;;;4991434;28;20454;-70
2022/08/17 11:56:48;;;;;;;3.93;3.63;;;21.10;99.90;;;;;;4991417;28;20467;-68
2022/08/17 11:59:53;;;;;;;4.33;3.93;;;21.10;99.90;;;;;;4991203;28;20867;-68
2022/08/17 12:02:33;;;;;;;3.53;3.23;;;21.10;99.90;;;;;;4991419;28;20474;-68
2022/08/17 12:05:10;;;;;;;4.83;4.33;;;21.10;99.90;;;;;;4990923;28;20486;-68
2022/08/17 12:07:42;;;;;;;4.67;4.20;;;21.20;99.90;;;;;;4993684;28;20994;-68
2022/08/17 12:10:11;;;;;;;5.30;4.00;;;21.30;99.90;;;;;;4995089;28;20494;-69
2022/08/17 12:12:42;;;;;;;4.20;3.77;;;21.30;99.90;;;;;;4994889;28;20467;-69
2022/08/17 12:15:18;;;;;;;4.00;3.70;;;21.40;99.90;;;;;;4994507;28;20552;-68
2022/08/17 12:17:52;;;;;;;4.20;3.83;;;21.50;99.90;;;;;;4994676;28;20488;-69
2022/08/17 12:20:22;;;;;;;3.90;3.60;;;21.50;99.90;;;;;;4996259;28;20462;-70
2022/08/17 12:22:59;;;;;;;3.70;3.40;;;21.60;99.90;;;;;;4998483;28;20463;-68
2022/08/17 12:25:33;;;;;;;4.43;4.03;;;21.60;99.90;;;;;;5011294;28;20570;-70
2022/08/17 12:28:01;;;;;;;5.63;4.40;;;21.70;99.90;;;;;;5014153;28;20487;-69
2022/08/17 12:30:28;;;;;;;4.00;3.70;;;21.80;99.90;;;;;;5014208;28;20467;-70
2022/08/17 12:32:55;;;;;;;4.10;3.70;;;21.80;99.90;;;;;;5014319;28;20833;-70
2022/08/17 12:35:28;;;;;;;3.80;3.50;;;21.80;99.90;;;;;;5013450;28;20463;-69
2022/08/17 12:37:57;;;;;;;4.20;3.80;;;21.90;99.90;;;;;;5013601;28;20486;-70
2022/08/17 12:40:26;;;;;;;3.87;3.53;;;22.00;99.90;;;;;;5013779;28;20817;-70
2022/08/17 12:42:57;;;;;;;4.23;3.80;;;22.00;99.90;;;;;;5012897;28;20473;-69
2022/08/17 12:45:29;;;;;;;4.40;3.63;;;22.10;99.90;;;;;;5013111;28;20493;-70
2022/08/17 12:48:06;;;;;;;4.30;4.00;;;22.20;99.90;;;;;;5014378;28;20493;-68
2022/08/17 12:50:34;;;;;;;4.93;4.10;;;22.40;99.90;;;;;;5003843;28;20549;-68
2022/08/17 12:53:01;;;;;;;4.30;4.00;;;22.70;99.90;;;;;;4998111;28;20465;-71
2022/08/17 12:55:29;;;;;;;3.93;3.63;;;23.00;99.90;;;;;;4993904;28;20461;-69
2022/08/17 12:57:58;;;;;;;4.47;3.77;;;23.40;99.90;;;;;;4993756;28;20491;-69
2022/08/17 13:00:29;;;;;;;4.87;3.67;;;23.90;99.90;;;;;;4996234;28;20518;-70
2022/08/17 13:03:00;;;;;;;3.37;3.03;;;24.30;99.90;;;;;;5010478;28;20466;-70
2022/08/17 13:05:29;;;;;;;4.17;3.87;;;24.70;99.90;;;;;;5006501;28;20850;-69
2022/08/17 13:07:57;;;;;;;3.23;2.93;;;25.00;99.90;;;;;;5020671;28;20485;-70
2022/08/17 13:10:28;;;;;;;3.73;3.43;;;25.30;99.90;;;;;;5032329;28;20558;-69
2022/08/17 13:12:55;;;;;;;3.93;3.60;;;25.40;99.90;;;;;;5032700;28;21320;-70
2022/08/17 13:15:29;;;;;;;4.07;3.63;;;25.60;99.90;;;;;;5032568;28;20459;-69
2022/08/17 13:18:03;;;;;;;3.70;3.40;;;25.70;99.90;;;;;;5030889;28;20488;-69
2022/08/17 13:20:30;;;;;;;3.60;3.30;;;25.80;99.90;;;;;;5031895;28;20496;-70
2022/08/17 13:23:00;;;;;;;3.93;3.63;;;25.90;99.90;;;;;;5031717;28;20810;-69
2022/08/17 13:25:27;;;;;;;4.03;3.20;;;25.90;99.90;;;;;;5030856;28;20856;-70
2022/08/17 13:27:55;;;;;;;4.50;3.53;;;26.00;99.90;;;;;;5030691;28;20484;-70
2022/08/17 13:30:27;;;;;;;4.00;3.60;;;26.00;99.90;;;;;;5031077;28;20469;-70
2022/08/17 13:32:56;;;;;;;4.53;3.60;;;26.00;99.60;;;;;;5031423;28;20464;-68
2022/08/17 13:35:45;;;;;;;3.77;3.47;;;26.10;99.00;;;;;;5031364;28;20464;-68
2022/08/17 13:38:15;;;;;;;3.67;3.37;;;26.30;98.80;;;;;;5019401;28;20861;-68
2022/08/17 13:40:49;;;;;;;3.60;3.30;;;26.40;99.90;;;;;;5011081;28;20465;-68
2022/08/17 13:43:39;;;;;;;3.70;3.40;;;26.60;99.90;;;;;;5005020;28;20704;-68
2022/08/17 13:46:11;;;;;;;4.93;3.57;;;26.80;98.80;;;;;;5004495;28;20486;-68
2022/08/17 13:48:39;;;;;;;3.37;3.07;;;26.90;97.10;;;;;;5004691;28;20479;-68